createdAt,value
2018-01-30T00:00:25.005Z,1011.3
2018-01-30T00:01:27.492Z,1011.4
2018-01-30T00:02:29.986Z,1011.3
2018-01-30T00:03:32.486Z,1011.5
2018-01-30T00:04:34.970Z,1011.4
2018-01-30T00:05:37.469Z,1011.4
2018-01-30T00:06:39.962Z,1011.4
2018-01-30T00:07:42.451Z,1011.3
2018-01-30T00:08:44.946Z,1011.4
2018-01-30T00:09:47.441Z,1011.4
2018-01-30T00:10:49.928Z,1011.4
2018-01-30T00:11:52.436Z,1011.4
2018-01-30T00:12:54.912Z,1011.5
2018-01-30T00:13:57.412Z,1011.4
2018-01-30T00:14:59.901Z,1011.4
2018-01-30T00:16:02.394Z,1011.5
2018-01-30T00:17:04.888Z,1011.5
2018-01-30T00:18:07.379Z,1011.6
2018-01-30T00:19:09.872Z,1011.6
2018-01-30T00:20:12.640Z,1011.6
2018-01-30T00:21:15.128Z,1011.7
2018-01-30T00:22:17.641Z,1011.6
2018-01-30T00:23:20.122Z,1011.7
2018-01-30T00:24:22.610Z,1011.7
2018-01-30T00:25:25.102Z,1011.7
2018-01-30T00:26:27.888Z,1011.6
2018-01-30T00:27:30.387Z,1011.7
2018-01-30T00:28:32.883Z,1011.7
2018-01-30T00:29:35.360Z,1011.8
2018-01-30T00:30:37.859Z,1011.6
2018-01-30T00:31:40.651Z,1011.8
2018-01-30T00:32:43.143Z,1011.7
2018-01-30T00:33:45.925Z,1011.7
2018-01-30T00:34:48.408Z,1011.8
2018-01-30T00:35:50.902Z,1011.8
2018-01-30T00:36:53.410Z,1011.8
2018-01-30T00:37:55.900Z,1011.9
2018-01-30T00:38:58.386Z,1011.8
2018-01-30T00:40:00.878Z,1011.8
2018-01-30T00:41:03.374Z,1011.9
2018-01-30T00:42:05.872Z,1011.8
2018-01-30T00:43:08.372Z,1011.8
2018-01-30T00:44:10.844Z,1011.8
2018-01-30T00:45:13.339Z,1011.9
2018-01-30T00:46:15.848Z,1011.9
2018-01-30T00:47:18.338Z,1012
2018-01-30T00:48:20.831Z,1012
2018-01-30T00:49:23.323Z,1012
2018-01-30T00:50:25.814Z,1012
2018-01-30T00:51:28.310Z,1012
2018-01-30T00:52:30.806Z,1012
2018-01-30T00:53:33.292Z,1012
2018-01-30T00:54:35.785Z,1012.1
2018-01-30T00:55:38.289Z,1012
2018-01-30T00:56:40.773Z,1012.1
2018-01-30T00:57:43.270Z,1012.1
2018-01-30T00:58:45.770Z,1012.1
2018-01-30T00:59:48.250Z,1012
2018-01-30T01:00:51.037Z,1012.2
2018-01-30T01:01:53.533Z,1012.2
2018-01-30T01:02:56.009Z,1012.3
2018-01-30T01:03:58.505Z,1012.3
2018-01-30T01:05:01.000Z,1012.3
2018-01-30T01:06:03.492Z,1012.3
2018-01-30T01:07:05.980Z,1012.3
2018-01-30T01:08:08.753Z,1012.4
2018-01-30T01:09:11.245Z,1012.3
2018-01-30T01:10:13.757Z,1012.3
2018-01-30T01:11:16.247Z,1012.3
2018-01-30T01:12:18.746Z,1012.3
2018-01-30T01:13:21.239Z,1012.5
2018-01-30T01:14:23.726Z,1012.4
2018-01-30T01:15:26.223Z,1012.3
2018-01-30T01:16:28.717Z,1012.3
2018-01-30T01:17:31.198Z,1012.4
2018-01-30T01:18:33.696Z,1012.4
2018-01-30T01:19:36.184Z,1012.4
2018-01-30T01:20:38.688Z,1012.5
2018-01-30T01:21:41.184Z,1012.5
2018-01-30T01:22:43.674Z,1012.4
2018-01-30T01:23:46.169Z,1012.5
2018-01-30T01:24:48.655Z,1012.6
2018-01-30T01:25:51.150Z,1012.6
2018-01-30T01:26:53.640Z,1012.7
2018-01-30T01:27:56.127Z,1012.7
2018-01-30T01:28:58.631Z,1012.7
2018-01-30T01:30:01.128Z,1012.7
2018-01-30T01:31:03.898Z,1012.7
2018-01-30T01:32:06.395Z,1012.7
2018-01-30T01:33:08.892Z,1012.8
2018-01-30T01:34:11.678Z,1012.8
2018-01-30T01:35:14.183Z,1012.7
2018-01-30T01:36:16.947Z,1012.8
2018-01-30T01:37:19.598Z,1012.8
2018-01-30T01:38:22.087Z,1012.8
2018-01-30T01:39:24.582Z,1012.8
2018-01-30T01:40:27.080Z,1012.8
2018-01-30T01:41:29.566Z,1012.9
2018-01-30T01:42:32.053Z,1013
2018-01-30T01:43:35.147Z,1012.8
2018-01-30T01:44:37.634Z,1012.9
2018-01-30T01:45:40.121Z,1012.9
2018-01-30T01:46:42.615Z,1012.9
2018-01-30T01:47:45.110Z,1013
2018-01-30T01:48:47.598Z,1012.9
2018-01-30T01:49:50.094Z,1012.9
2018-01-30T01:50:52.592Z,1013
2018-01-30T01:51:55.088Z,1012.9
2018-01-30T01:52:57.569Z,1013
2018-01-30T01:54:00.063Z,1012.9
2018-01-30T01:55:02.556Z,1013.1
2018-01-30T01:56:05.360Z,1013
2018-01-30T01:57:07.852Z,1013
2018-01-30T01:58:10.391Z,1013
2018-01-30T01:59:12.835Z,1012.9
2018-01-30T02:00:15.335Z,1013
2018-01-30T02:01:17.828Z,1013.1
2018-01-30T02:02:20.322Z,1013.2
2018-01-30T02:03:22.812Z,1013.1
2018-01-30T02:04:25.311Z,1013.1
2018-01-30T02:05:27.808Z,1013.2
2018-01-30T02:06:30.305Z,1013.2
2018-01-30T02:07:32.779Z,1013.1
2018-01-30T02:08:35.559Z,1013.1
2018-01-30T02:09:38.343Z,1013.2
2018-01-30T02:10:40.835Z,1013.3
2018-01-30T02:11:43.332Z,1013.2
2018-01-30T02:12:45.821Z,1013.1
2018-01-30T02:13:48.309Z,1013.2
2018-01-30T02:14:50.813Z,1013.1
2018-01-30T02:15:53.306Z,1013.2
2018-01-30T02:16:56.091Z,1013.2
2018-01-30T02:17:58.577Z,1013.2
2018-01-30T02:19:01.082Z,1013.1
2018-01-30T02:20:03.859Z,1013.2
2018-01-30T02:21:06.653Z,1013.2
2018-01-30T02:22:09.149Z,1013.1
2018-01-30T02:23:11.637Z,1013.1
2018-01-30T02:24:14.130Z,1013.1
2018-01-30T02:25:16.637Z,1013.1
2018-01-30T02:26:19.110Z,1013
2018-01-30T02:27:21.887Z,1013.2
2018-01-30T02:28:24.393Z,1013.2
2018-01-30T02:29:26.878Z,1013.2
2018-01-30T02:30:29.378Z,1013.2
2018-01-30T02:31:31.875Z,1013.2
2018-01-30T02:32:34.350Z,1013.3
2018-01-30T02:33:36.862Z,1013.4
2018-01-30T02:34:39.351Z,1013.3
2018-01-30T02:35:41.837Z,1013.3
2018-01-30T02:36:44.336Z,1013.3
2018-01-30T02:37:46.820Z,1013.3
2018-01-30T02:38:49.308Z,1013.2
2018-01-30T02:39:51.808Z,1013.2
2018-01-30T02:40:54.291Z,1013.3
2018-01-30T02:41:57.072Z,1013.3
2018-01-30T02:42:59.578Z,1013.3
2018-01-30T02:44:02.062Z,1013.3
2018-01-30T02:45:04.557Z,1013.4
2018-01-30T02:46:07.048Z,1013.3
2018-01-30T02:47:09.912Z,1013.3
2018-01-30T02:48:12.682Z,1013.4
2018-01-30T02:49:15.175Z,1013.4
2018-01-30T02:50:17.681Z,1013.4
2018-01-30T02:51:20.171Z,1013.5
2018-01-30T02:52:22.657Z,1013.4
2018-01-30T02:53:25.151Z,1013.3
2018-01-30T02:54:27.656Z,1013.4
2018-01-30T02:55:30.146Z,1013.4
2018-01-30T02:56:32.645Z,1013.3
2018-01-30T02:57:35.120Z,1013.3
2018-01-30T02:58:37.612Z,1013.4
2018-01-30T02:59:40.123Z,1013.4
2018-01-30T03:00:42.608Z,1013.5
2018-01-30T03:01:45.391Z,1013.4
2018-01-30T03:02:47.878Z,1013.4
2018-01-30T03:03:50.376Z,1013.4
2018-01-30T03:04:52.869Z,1013.4
2018-01-30T03:05:55.967Z,1013.3
2018-01-30T03:06:58.455Z,1013.4
2018-01-30T03:08:00.949Z,1013.4
2018-01-30T03:09:03.445Z,1013.5
2018-01-30T03:10:05.932Z,1013.5
2018-01-30T03:11:08.716Z,1013.5
2018-01-30T03:12:11.206Z,1013.3
2018-01-30T03:13:13.701Z,1013.4
2018-01-30T03:14:16.193Z,1013.4
2018-01-30T03:15:18.677Z,1013.4
2018-01-30T03:16:21.175Z,1013.5
2018-01-30T03:17:23.667Z,1013.5
2018-01-30T03:18:26.160Z,1013.4
2018-01-30T03:19:28.651Z,1013.3
2018-01-30T03:20:31.431Z,1013.4
2018-01-30T03:21:34.218Z,1013.5
2018-01-30T03:22:36.713Z,1013.5
2018-01-30T03:23:39.193Z,1013.6
2018-01-30T03:24:41.694Z,1013.5
2018-01-30T03:25:44.183Z,1013.5
2018-01-30T03:26:46.682Z,1013.5
2018-01-30T03:27:49.171Z,1013.6
2018-01-30T03:28:51.973Z,1013.5
2018-01-30T03:29:54.454Z,1013.5
2018-01-30T03:30:56.972Z,1013.4
2018-01-30T03:31:59.751Z,1013.4
2018-01-30T03:33:02.257Z,1013.4
2018-01-30T03:34:05.046Z,1013.4
2018-01-30T03:35:07.816Z,1013.5
2018-01-30T03:36:10.604Z,1013.4
2018-01-30T03:37:13.092Z,1013.4
2018-01-30T03:38:15.590Z,1013.5
2018-01-30T03:39:18.086Z,1013.4
2018-01-30T03:40:20.576Z,1013.4
2018-01-30T03:41:23.641Z,1013.4
2018-01-30T03:42:26.147Z,1013.2
2018-01-30T03:43:28.637Z,1013.3
2018-01-30T03:44:31.135Z,1013.3
2018-01-30T03:45:33.920Z,1013.3
2018-01-30T03:46:36.413Z,1013.3
2018-01-30T03:47:38.894Z,1013.2
2018-01-30T03:48:41.390Z,1013.4
2018-01-30T03:49:43.875Z,1013.3
2018-01-30T03:50:46.661Z,1013.4
2018-01-30T03:51:49.151Z,1013.4
2018-01-30T03:52:51.648Z,1013.3
2018-01-30T03:53:54.139Z,1013.3
2018-01-30T03:54:56.642Z,1013.4
2018-01-30T03:55:59.414Z,1013.3
2018-01-30T03:57:01.901Z,1013.4
2018-01-30T03:58:04.385Z,1013.5
2018-01-30T03:59:06.885Z,1013.4
2018-01-30T04:00:09.374Z,1013.5
2018-01-30T04:01:11.871Z,1013.4
2018-01-30T04:02:14.373Z,1013.5
2018-01-30T04:03:16.869Z,1013.6
2018-01-30T04:04:19.656Z,1013.5
2018-01-30T04:05:22.154Z,1013.5
2018-01-30T04:06:24.628Z,1013.6
2018-01-30T04:07:27.122Z,1013.5
2018-01-30T04:08:29.633Z,1013.5
2018-01-30T04:09:32.106Z,1013.5
2018-01-30T04:10:34.600Z,1013.5
2018-01-30T04:11:37.086Z,1013.5
2018-01-30T04:12:39.575Z,1013.5
2018-01-30T04:13:42.073Z,1013.5
2018-01-30T04:14:44.564Z,1013.5
2018-01-30T04:15:47.045Z,1013.5
2018-01-30T04:16:49.827Z,1013.5
2018-01-30T04:17:52.327Z,1013.4
2018-01-30T04:18:54.810Z,1013.5
2018-01-30T04:19:57.298Z,1013.5
2018-01-30T04:20:59.805Z,1013.5
2018-01-30T04:22:02.300Z,1013.5
2018-01-30T04:23:04.784Z,1013.6
2018-01-30T04:24:07.282Z,1013.6
2018-01-30T04:25:09.773Z,1013.6
2018-01-30T04:26:12.272Z,1013.5
2018-01-30T04:27:14.768Z,1013.6
2018-01-30T04:28:17.252Z,1013.5
2018-01-30T04:29:19.740Z,1013.6
2018-01-30T04:30:22.250Z,1013.6
2018-01-30T04:31:24.729Z,1013.6
2018-01-30T04:32:27.511Z,1013.6
2018-01-30T04:33:30.008Z,1013.6
2018-01-30T04:34:32.497Z,1013.5
2018-01-30T04:35:34.990Z,1013.6
2018-01-30T04:36:37.484Z,1013.6
2018-01-30T04:37:39.975Z,1013.5
2018-01-30T04:38:42.759Z,1013.6
2018-01-30T04:39:45.544Z,1013.5
2018-01-30T04:40:48.024Z,1013.7
2018-01-30T04:41:50.527Z,1013.6
2018-01-30T04:42:53.018Z,1013.6
2018-01-30T04:43:55.510Z,1013.6
2018-01-30T04:44:58.007Z,1013.7
2018-01-30T04:46:00.487Z,1013.6
2018-01-30T04:47:03.288Z,1013.6
2018-01-30T04:48:05.779Z,1013.6
2018-01-30T04:49:08.265Z,1013.7
2018-01-30T04:50:10.810Z,1013.7
2018-01-30T04:51:13.295Z,1013.8
2018-01-30T04:52:16.076Z,1013.8
2018-01-30T04:53:18.576Z,1013.8
2018-01-30T04:54:21.056Z,1013.7
2018-01-30T04:55:23.547Z,1013.7
2018-01-30T04:56:26.050Z,1013.8
2018-01-30T04:57:28.535Z,1013.8
2018-01-30T04:58:31.032Z,1013.9
2018-01-30T04:59:33.524Z,1013.8
2018-01-30T05:00:36.015Z,1013.8
2018-01-30T05:01:38.514Z,1013.8
2018-01-30T05:02:41.008Z,1013.8
2018-01-30T05:03:43.490Z,1013.8
2018-01-30T05:04:45.991Z,1013.9
2018-01-30T05:05:48.479Z,1013.7
2018-01-30T05:06:50.969Z,1013.9
2018-01-30T05:07:53.451Z,1013.9
2018-01-30T05:08:56.535Z,1013.9
2018-01-30T05:09:59.032Z,1014
2018-01-30T05:11:01.819Z,1014
2018-01-30T05:12:04.313Z,1014
2018-01-30T05:13:07.086Z,1014
2018-01-30T05:14:09.871Z,1014
2018-01-30T05:15:12.671Z,1014
2018-01-30T05:16:15.158Z,1014
2018-01-30T05:17:17.649Z,1014.2
2018-01-30T05:18:20.148Z,1014
2018-01-30T05:19:22.647Z,1014.1
2018-01-30T05:20:25.136Z,1014.1
2018-01-30T05:21:27.625Z,1014.2
2018-01-30T05:22:30.123Z,1014.3
2018-01-30T05:23:32.613Z,1014.1
2018-01-30T05:24:35.107Z,1014.1
2018-01-30T05:25:37.597Z,1014.2
2018-01-30T05:26:40.090Z,1014.1
2018-01-30T05:27:42.588Z,1014.2
2018-01-30T05:28:45.072Z,1014.2
2018-01-30T05:29:47.571Z,1014.2
2018-01-30T05:30:50.071Z,1014.2
2018-01-30T05:31:52.551Z,1014.2
2018-01-30T05:32:55.046Z,1014.3
2018-01-30T05:33:57.537Z,1014.3
2018-01-30T05:35:00.033Z,1014.3
2018-01-30T05:36:02.821Z,1014.3
2018-01-30T05:37:05.309Z,1014.3
2018-01-30T05:38:07.788Z,1014.4
2018-01-30T05:39:10.308Z,1014.4
2018-01-30T05:40:12.798Z,1014.5
2018-01-30T05:41:15.286Z,1014.5
2018-01-30T05:42:17.781Z,1014.5
2018-01-30T05:43:20.273Z,1014.5
2018-01-30T05:44:22.768Z,1014.5
2018-01-30T05:45:25.260Z,1014.5
2018-01-30T05:46:27.762Z,1014.5
2018-01-30T05:47:30.246Z,1014.6
2018-01-30T05:48:32.740Z,1014.5
2018-01-30T05:49:35.235Z,1014.6
2018-01-30T05:50:37.732Z,1014.5
2018-01-30T05:51:40.215Z,1014.7
2018-01-30T05:52:42.711Z,1014.7
2018-01-30T05:53:45.213Z,1014.7
2018-01-30T05:54:47.702Z,1014.6
2018-01-30T05:55:50.203Z,1014.7
2018-01-30T05:56:52.695Z,1014.6
2018-01-30T05:57:55.187Z,1014.7
2018-01-30T05:58:57.683Z,1014.7
2018-01-30T06:00:00.166Z,1014.7
2018-01-30T06:01:02.661Z,1014.8
2018-01-30T06:02:05.456Z,1014.8
2018-01-30T06:03:07.931Z,1014.8
2018-01-30T06:04:10.416Z,1014.8
2018-01-30T06:05:12.919Z,1014.9
2018-01-30T06:06:15.407Z,1014.9
2018-01-30T06:07:17.899Z,1014.9
2018-01-30T06:08:20.688Z,1014.9
2018-01-30T06:09:23.465Z,1015
2018-01-30T06:10:25.968Z,1015
2018-01-30T06:11:28.476Z,1015
2018-01-30T06:12:30.947Z,1015
2018-01-30T06:13:33.441Z,1015
2018-01-30T06:14:35.937Z,1015
2018-01-30T06:15:38.714Z,1015
2018-01-30T06:16:41.506Z,1015.1
2018-01-30T06:17:44.000Z,1015.1
2018-01-30T06:18:46.499Z,1015
2018-01-30T06:19:49.273Z,1015
2018-01-30T06:20:51.773Z,1015
2018-01-30T06:21:54.260Z,1015
2018-01-30T06:22:56.756Z,1015
2018-01-30T06:23:59.246Z,1015
2018-01-30T06:25:01.732Z,1015
2018-01-30T06:26:04.533Z,1015
2018-01-30T06:27:07.040Z,1015
2018-01-30T06:28:09.525Z,1014.9
2018-01-30T06:29:12.012Z,1015
2018-01-30T06:30:14.509Z,1014.9
2018-01-30T06:31:16.996Z,1014.9
2018-01-30T06:32:19.490Z,1014.9
2018-01-30T06:33:22.267Z,1014.9
2018-01-30T06:34:24.755Z,1014.9
2018-01-30T06:35:27.245Z,1014.9
2018-01-30T06:36:29.750Z,1014.9
2018-01-30T06:37:32.278Z,1015
2018-01-30T06:38:34.785Z,1015
2018-01-30T06:39:37.269Z,1015
2018-01-30T06:40:39.770Z,1015
2018-01-30T06:41:42.262Z,1015
2018-01-30T06:42:44.756Z,1015
2018-01-30T06:43:47.239Z,1015
2018-01-30T06:44:50.020Z,1015
2018-01-30T06:45:52.517Z,1015
2018-01-30T06:46:55.009Z,1015
2018-01-30T06:47:57.500Z,1015
2018-01-30T06:49:00.284Z,1015
2018-01-30T06:50:02.782Z,1015
2018-01-30T06:51:05.270Z,1015
2018-01-30T06:52:08.071Z,1015
2018-01-30T06:53:10.549Z,1015
2018-01-30T06:54:13.045Z,1015
2018-01-30T06:55:15.532Z,1014.9
2018-01-30T06:56:18.032Z,1015
2018-01-30T06:57:20.812Z,1014.9
2018-01-30T06:58:23.307Z,1015
2018-01-30T06:59:25.791Z,1015
2018-01-30T07:00:28.292Z,1015.1
2018-01-30T07:01:31.101Z,1015
2018-01-30T07:02:33.575Z,1015
2018-01-30T07:03:36.084Z,1015
2018-01-30T07:04:39.156Z,1015
2018-01-30T07:05:41.935Z,1015
2018-01-30T07:06:44.427Z,1015
2018-01-30T07:07:46.918Z,1015
2018-01-30T07:08:49.692Z,1015
2018-01-30T07:09:52.198Z,1015
2018-01-30T07:10:54.684Z,1015
2018-01-30T07:11:57.174Z,1015
2018-01-30T07:12:59.666Z,1015
2018-01-30T07:14:02.161Z,1015.1
2018-01-30T07:15:04.642Z,1015.1
2018-01-30T07:16:07.423Z,1015.2
2018-01-30T07:17:09.930Z,1015.1
2018-01-30T07:18:12.419Z,1015.1
2018-01-30T07:19:14.902Z,1015.1
2018-01-30T07:20:17.395Z,1015.2
2018-01-30T07:21:19.890Z,1015.1
2018-01-30T07:22:22.389Z,1015.1
2018-01-30T07:23:25.174Z,1015.1
2018-01-30T07:24:27.649Z,1015.1
2018-01-30T07:25:30.430Z,1015.2
2018-01-30T07:26:32.935Z,1015.1
2018-01-30T07:27:35.421Z,1015.2
2018-01-30T07:28:37.914Z,1015.1
2018-01-30T07:29:40.406Z,1015.1
2018-01-30T07:30:42.900Z,1015.2
2018-01-30T07:31:45.386Z,1015.2
2018-01-30T07:32:47.880Z,1015.2
2018-01-30T07:33:50.353Z,1015.3
2018-01-30T07:34:52.853Z,1015.3
2018-01-30T07:35:55.344Z,1015.3
2018-01-30T07:36:57.835Z,1015.3
2018-01-30T07:38:00.327Z,1015.3
2018-01-30T07:39:02.822Z,1015.3
2018-01-30T07:40:05.315Z,1015.3
2018-01-30T07:41:08.107Z,1015.3
2018-01-30T07:42:10.592Z,1015.3
2018-01-30T07:43:13.376Z,1015.4
2018-01-30T07:44:15.868Z,1015.3
2018-01-30T07:45:18.362Z,1015.3
2018-01-30T07:46:21.153Z,1015.5
2018-01-30T07:47:23.955Z,1015.4
2018-01-30T07:48:26.456Z,1015.4
2018-01-30T07:49:28.949Z,1015.4
2018-01-30T07:50:31.426Z,1015.5
2018-01-30T07:51:33.926Z,1015.4
2018-01-30T07:52:36.415Z,1015.5
2018-01-30T07:53:38.910Z,1015.5
2018-01-30T07:54:41.387Z,1015.4
2018-01-30T07:55:43.881Z,1015.5
2018-01-30T07:56:46.370Z,1015.5
2018-01-30T07:57:48.881Z,1015.5
2018-01-30T07:58:51.362Z,1015.5
2018-01-30T07:59:53.861Z,1015.5
2018-01-30T08:00:56.363Z,1015.5
2018-01-30T08:01:58.839Z,1015.5
2018-01-30T08:03:01.338Z,1015.5
2018-01-30T08:04:04.130Z,1015.5
2018-01-30T08:05:06.626Z,1015.5
2018-01-30T08:06:09.124Z,1015.6
2018-01-30T08:07:11.619Z,1015.6
2018-01-30T08:08:14.105Z,1015.6
2018-01-30T08:09:16.608Z,1015.7
2018-01-30T08:10:19.105Z,1015.6
2018-01-30T08:11:22.460Z,1015.7
2018-01-30T08:12:24.966Z,1015.7
2018-01-30T08:13:27.460Z,1015.8
2018-01-30T08:14:29.939Z,1015.7
2018-01-30T08:15:32.437Z,1015.8
2018-01-30T08:16:34.925Z,1015.8
2018-01-30T08:17:37.424Z,1015.8
2018-01-30T08:18:39.914Z,1015.7
2018-01-30T08:19:42.408Z,1015.9
2018-01-30T08:20:44.898Z,1015.8
2018-01-30T08:21:47.402Z,1015.9
2018-01-30T08:22:49.888Z,1015.9
2018-01-30T08:23:52.382Z,1016
2018-01-30T08:24:54.863Z,1016
2018-01-30T08:25:57.361Z,1015.9
2018-01-30T08:26:59.848Z,1015.8
2018-01-30T08:28:02.349Z,1015.8
2018-01-30T08:29:04.842Z,1015.9
2018-01-30T08:30:07.324Z,1016
2018-01-30T08:31:09.819Z,1016
2018-01-30T08:32:12.317Z,1016
2018-01-30T08:33:14.796Z,1015.9
2018-01-30T08:34:17.284Z,1015.9
2018-01-30T08:35:19.792Z,1015.8
2018-01-30T08:36:22.280Z,1016
2018-01-30T08:37:24.787Z,1015.9
2018-01-30T08:38:27.276Z,1015.9
2018-01-30T08:39:29.766Z,1015.9
2018-01-30T08:40:32.269Z,1016
2018-01-30T08:41:34.762Z,1015.9
2018-01-30T08:42:37.242Z,1015.8
2018-01-30T08:43:39.740Z,1016
2018-01-30T08:44:42.238Z,1016
2018-01-30T08:45:44.736Z,1016
2018-01-30T08:46:47.236Z,1016
2018-01-30T08:47:49.712Z,1016
2018-01-30T08:48:52.497Z,1016.1
2018-01-30T08:49:54.996Z,1016
2018-01-30T08:50:57.485Z,1015.9
2018-01-30T08:51:59.981Z,1016
2018-01-30T08:53:02.475Z,1015.8
2018-01-30T08:54:04.963Z,1015.9
2018-01-30T08:55:07.468Z,1016
2018-01-30T08:56:10.570Z,1016
2018-01-30T08:57:13.071Z,1015.9
2018-01-30T08:58:15.570Z,1016.1
2018-01-30T08:59:18.227Z,1016
2018-01-30T09:00:21.683Z,1016
2018-01-30T09:01:24.182Z,1016
2018-01-30T09:02:26.705Z,1016
2018-01-30T09:03:29.237Z,1016
2018-01-30T09:04:31.736Z,1016
2018-01-30T09:05:34.330Z,1016
2018-01-30T09:06:36.911Z,1016
2018-01-30T09:07:39.405Z,1016.1
2018-01-30T09:08:41.908Z,1016.1
2018-01-30T09:09:44.449Z,1016.1
2018-01-30T09:10:46.978Z,1016.1
2018-01-30T09:11:50.066Z,1016.1
2018-01-30T09:12:53.124Z,1016.1
2018-01-30T09:13:55.737Z,1016.1
2018-01-30T09:14:58.459Z,1016.2
2018-01-30T09:16:00.953Z,1016.1
2018-01-30T09:17:03.741Z,1016.1
2018-01-30T09:18:06.228Z,1016.1
2018-01-30T09:19:08.720Z,1016.1
2018-01-30T09:20:11.224Z,1016.1
2018-01-30T09:21:13.707Z,1016
2018-01-30T09:22:16.200Z,1016.1
2018-01-30T09:23:18.702Z,1016.1
2018-01-30T09:24:21.194Z,1016.2
2018-01-30T09:25:23.684Z,1016.1
2018-01-30T09:26:26.181Z,1016.1
2018-01-30T09:27:28.680Z,1016.2
2018-01-30T09:28:31.182Z,1016.2
2018-01-30T09:29:33.968Z,1016.2
2018-01-30T09:30:36.455Z,1016
2018-01-30T09:31:38.962Z,1016.2
2018-01-30T09:32:41.746Z,1016.2
2018-01-30T09:33:44.245Z,1016.2
2018-01-30T09:34:46.738Z,1016.2
2018-01-30T09:35:49.238Z,1016.1
2018-01-30T09:36:51.734Z,1016.1
2018-01-30T09:37:54.230Z,1016.2
2018-01-30T09:38:57.013Z,1016.1
2018-01-30T09:39:59.506Z,1016.2
2018-01-30T09:41:01.995Z,1016.2
2018-01-30T09:42:04.499Z,1016.2
2018-01-30T09:43:06.977Z,1016.2
2018-01-30T09:44:09.478Z,1016.1
2018-01-30T09:45:12.253Z,1016.2
2018-01-30T09:46:15.055Z,1016.2
2018-01-30T09:47:17.530Z,1016.2
2018-01-30T09:48:20.027Z,1016.3
2018-01-30T09:49:22.577Z,1016.3
2018-01-30T09:50:25.031Z,1016.2
2018-01-30T09:51:27.834Z,1016.3
2018-01-30T09:52:30.328Z,1016.3
2018-01-30T09:53:32.820Z,1016.3
2018-01-30T09:54:35.617Z,1016.3
2018-01-30T09:55:38.118Z,1016.3
2018-01-30T09:56:40.609Z,1016.3
2018-01-30T09:57:43.115Z,1016.3
2018-01-30T09:58:45.601Z,1016.3
2018-01-30T09:59:48.100Z,1016.3
2018-01-30T10:00:50.603Z,1016.3
2018-01-30T10:01:53.096Z,1016.3
2018-01-30T10:02:55.587Z,1016.4
2018-01-30T10:03:58.090Z,1016.4
2018-01-30T10:05:00.571Z,1016.4
2018-01-30T10:06:03.381Z,1016.5
2018-01-30T10:07:06.162Z,1016.5
2018-01-30T10:08:08.663Z,1016.5
2018-01-30T10:09:11.161Z,1016.5
2018-01-30T10:10:13.950Z,1016.6
2018-01-30T10:11:16.450Z,1016.5
2018-01-30T10:12:18.946Z,1016.5
2018-01-30T10:13:21.448Z,1016.6
2018-01-30T10:14:24.231Z,1016.6
2018-01-30T10:15:27.015Z,1016.6
2018-01-30T10:16:29.512Z,1016.7
2018-01-30T10:17:32.009Z,1016.8
2018-01-30T10:18:34.837Z,1016.8
2018-01-30T10:19:37.339Z,1016.8
2018-01-30T10:20:39.839Z,1016.7
2018-01-30T10:21:42.620Z,1016.8
2018-01-30T10:22:45.128Z,1016.7
2018-01-30T10:23:47.616Z,1016.8
2018-01-30T10:24:50.110Z,1016.7
2018-01-30T10:25:52.607Z,1016.8
2018-01-30T10:26:55.102Z,1016.8
2018-01-30T10:27:57.890Z,1016.8
2018-01-30T10:29:00.681Z,1016.8
2018-01-30T10:30:03.185Z,1016.7
2018-01-30T10:31:05.972Z,1016.8
2018-01-30T10:32:08.483Z,1016.8
2018-01-30T10:33:10.975Z,1016.8
2018-01-30T10:34:13.471Z,1016.8
2018-01-30T10:35:15.969Z,1016.7
2018-01-30T10:36:18.463Z,1016.7
2018-01-30T10:37:20.965Z,1016.7
2018-01-30T10:38:23.749Z,1016.7
2018-01-30T10:39:26.225Z,1016.7
2018-01-30T10:40:28.724Z,1016.7
2018-01-30T10:41:31.226Z,1016.6
2018-01-30T10:42:33.725Z,1016.7
2018-01-30T10:43:36.223Z,1016.7
2018-01-30T10:44:38.718Z,1016.6
2018-01-30T10:45:41.218Z,1016.6
2018-01-30T10:46:43.694Z,1016.7
2018-01-30T10:47:46.194Z,1016.8
2018-01-30T10:48:48.701Z,1016.8
2018-01-30T10:49:51.183Z,1016.8
2018-01-30T10:50:53.678Z,1016.8
2018-01-30T10:51:56.165Z,1016.8
2018-01-30T10:52:58.656Z,1016.9
2018-01-30T10:54:01.156Z,1016.9
2018-01-30T10:55:03.648Z,1016.9
2018-01-30T10:56:06.130Z,1016.9
2018-01-30T10:57:08.632Z,1016.9
2018-01-30T10:58:11.413Z,1016.9
2018-01-30T10:59:13.911Z,1016.9
2018-01-30T11:00:16.407Z,1016.9
2018-01-30T11:01:18.890Z,1017
2018-01-30T11:02:21.382Z,1016.9
2018-01-30T11:03:23.891Z,1016.8
2018-01-30T11:04:26.389Z,1016.9
2018-01-30T11:05:29.171Z,1016.9
2018-01-30T11:06:31.668Z,1016.8
2018-01-30T11:07:34.166Z,1016.8
2018-01-30T11:08:36.955Z,1016.7
2018-01-30T11:09:39.455Z,1016.6
2018-01-30T11:10:41.933Z,1016.6
2018-01-30T11:11:44.780Z,1016.6
2018-01-30T11:12:47.511Z,1016.7
2018-01-30T11:13:50.008Z,1016.5
2018-01-30T11:14:52.786Z,1016.6
2018-01-30T11:15:55.280Z,1016.5
2018-01-30T11:16:57.773Z,1016.5
2018-01-30T11:18:00.266Z,1016.5
2018-01-30T11:19:02.765Z,1016.5
2018-01-30T11:20:05.845Z,1016.5
2018-01-30T11:21:08.323Z,1016.5
2018-01-30T11:22:10.835Z,1016.4
2018-01-30T11:23:13.320Z,1016.4
2018-01-30T11:24:15.813Z,1016.4
2018-01-30T11:25:18.313Z,1016.4
2018-01-30T11:26:20.808Z,1016.6
2018-01-30T11:27:23.300Z,1016.5
2018-01-30T11:28:25.791Z,1016.5
2018-01-30T11:29:28.288Z,1016.5
2018-01-30T11:30:30.789Z,1016.5
2018-01-30T11:31:33.573Z,1016.4
2018-01-30T11:32:36.071Z,1016.5
2018-01-30T11:33:38.855Z,1016.5
2018-01-30T11:34:41.349Z,1016.4
2018-01-30T11:35:43.853Z,1016.4
2018-01-30T11:36:46.362Z,1016.3
2018-01-30T11:37:48.851Z,1016.4
2018-01-30T11:38:51.352Z,1016.4
2018-01-30T11:39:53.845Z,1016.5
2018-01-30T11:40:56.334Z,1016.5
2018-01-30T11:41:58.829Z,1016.5
2018-01-30T11:43:01.325Z,1016.4
2018-01-30T11:44:03.832Z,1016.5
2018-01-30T11:45:06.629Z,1016.4
2018-01-30T11:46:09.110Z,1016.4
2018-01-30T11:47:11.623Z,1016.5
2018-01-30T11:48:14.402Z,1016.4
2018-01-30T11:49:16.907Z,1016.4
2018-01-30T11:50:19.396Z,1016.4
2018-01-30T11:51:22.174Z,1016.4
2018-01-30T11:52:24.673Z,1016.5
2018-01-30T11:53:27.168Z,1016.5
2018-01-30T11:54:29.959Z,1016.5
2018-01-30T11:55:32.495Z,1016.4
2018-01-30T11:56:34.948Z,1016.4
2018-01-30T11:57:37.440Z,1016.4
2018-01-30T11:58:39.943Z,1016.4
2018-01-30T11:59:42.436Z,1016.3
2018-01-30T12:00:44.921Z,1016.3
2018-01-30T12:01:47.431Z,1016.3
2018-01-30T12:02:49.926Z,1016.3
2018-01-30T12:03:52.715Z,1016.3
2018-01-30T12:04:55.206Z,1016.3
2018-01-30T12:05:58.001Z,1016.3
2018-01-30T12:07:00.490Z,1016.4
2018-01-30T12:08:03.008Z,1016.3
2018-01-30T12:09:05.498Z,1016.4
2018-01-30T12:10:08.434Z,1016.3
2018-01-30T12:11:10.922Z,1016.3
2018-01-30T12:12:13.433Z,1016.3
2018-01-30T12:13:15.926Z,1016.3
2018-01-30T12:14:18.427Z,1016.2
2018-01-30T12:15:20.917Z,1016.2
2018-01-30T12:16:23.415Z,1016.4
2018-01-30T12:17:25.899Z,1016.2
2018-01-30T12:18:28.412Z,1016.3
2018-01-30T12:19:31.186Z,1016.2
2018-01-30T12:20:33.685Z,1016.3
2018-01-30T12:21:36.185Z,1016.2
2018-01-30T12:22:38.675Z,1016.3
2018-01-30T12:23:41.175Z,1016.3
2018-01-30T12:24:43.739Z,1016.3
2018-01-30T12:25:46.167Z,1016.3
2018-01-30T12:26:48.666Z,1016.3
2018-01-30T12:27:51.160Z,1016.3
2018-01-30T12:28:53.654Z,1016.3
2018-01-30T12:29:56.147Z,1016.2
2018-01-30T12:30:58.658Z,1016.3
2018-01-30T12:32:01.433Z,1016.2
2018-01-30T12:33:03.940Z,1016.2
2018-01-30T12:34:06.414Z,1016.2
2018-01-30T12:35:08.909Z,1016.1
2018-01-30T12:36:11.693Z,1016.2
2018-01-30T12:37:14.185Z,1016.1
2018-01-30T12:38:16.693Z,1016.1
2018-01-30T12:39:19.757Z,1016.1
2018-01-30T12:40:22.255Z,1016.1
2018-01-30T12:41:24.752Z,1016.1
2018-01-30T12:42:27.253Z,1016
2018-01-30T12:43:29.737Z,1016
2018-01-30T12:44:32.509Z,1016
2018-01-30T12:45:35.022Z,1016
2018-01-30T12:46:37.797Z,1016.1
2018-01-30T12:47:40.292Z,1016
2018-01-30T12:48:42.794Z,1016.1
2018-01-30T12:49:45.290Z,1016
2018-01-30T12:50:47.797Z,1016
2018-01-30T12:51:50.308Z,1016.1
2018-01-30T12:52:52.791Z,1016.1
2018-01-30T12:53:55.579Z,1016.1
2018-01-30T12:54:58.387Z,1016.1
2018-01-30T12:56:00.881Z,1016.1
2018-01-30T12:57:03.391Z,1016.1
2018-01-30T12:58:05.868Z,1016.1
2018-01-30T12:59:08.363Z,1016.1
2018-01-30T13:00:10.876Z,1016.1
2018-01-30T13:01:13.369Z,1016.1
2018-01-30T13:02:16.070Z,1016.1
2018-01-30T13:03:18.559Z,1016.1
2018-01-30T13:04:21.050Z,1016.1
2018-01-30T13:05:23.556Z,1016.1
2018-01-30T13:06:26.053Z,1016.2
2018-01-30T13:07:28.537Z,1016.2